Terminal Aerodrome Forecast
Issued by NWS

Home | Current Version | Previous Version | Text Only | Print | Product List | Glossary On
Versions: 1 2 3 4 5 6 7 8 9 10 11 12 13 14 15 16 17 18 19 20 21 22
000
FTUS41 KBGM 092338
TAFELM
TAF
KELM 092338Z 1000/1024 20003KT 5SM -SN SCT008 OVC015
      TEMPO 1000/1001 2SM -SN OVC009
     FM100200 25003KT P6SM BKN025 OVC050
     FM101200 26008KT 2SM -SN OVC015=

USA.gov is the U.S. government's official web portal to all federal, state and local government web resources and services.